sensor_id;sensor_type;location;lat;lon;timestamp;P1;P2;P0
79537;PMS5003;68989;52.032;5.152;2024-03-08T00:01:32;53;50;
79537;PMS5003;68989;52.032;5.152;2024-03-08T00:03:59;68;61;
79537;PMS5003;68989;52.032;5.152;2024-03-08T00:06:27;54;47;
79537;PMS5003;68989;52.032;5.152;2024-03-08T00:08:54;53;47;
79537;PMS5003;68989;52.032;5.152;2024-03-08T00:11:22;62;53;
79537;PMS5003;68989;52.032;5.152;2024-03-08T00:13:49;56;53;
79537;PMS5003;68989;52.032;5.152;2024-03-08T00:16:16;56;50;
79537;PMS5003;68989;52.032;5.152;2024-03-08T00:18:43;55;52;
79537;PMS5003;68989;52.032;5.152;2024-03-08T00:21:10;62;54;
79537;PMS5003;68989;52.032;5.152;2024-03-08T00:23:37;60;54;
79537;PMS5003;68989;52.032;5.152;2024-03-08T00:26:04;56;49;
79537;PMS5003;68989;52.032;5.152;2024-03-08T00:28:31;51;51;
79537;PMS5003;68989;52.032;5.152;2024-03-08T00:30:58;60;56;
79537;PMS5003;68989;52.032;5.152;2024-03-08T00:33:25;65;55;
79537;PMS5003;68989;52.032;5.152;2024-03-08T00:35:52;64;55;
79537;PMS5003;68989;52.032;5.152;2024-03-08T00:38:19;60;49;
79537;PMS5003;68989;52.032;5.152;2024-03-08T00:40:46;58;52;
79537;PMS5003;68989;52.032;5.152;2024-03-08T00:43:14;69;56;
79537;PMS5003;68989;52.032;5.152;2024-03-08T00:45:41;67;56;
79537;PMS5003;68989;52.032;5.152;2024-03-08T00:48:09;55;52;
79537;PMS5003;68989;52.032;5.152;2024-03-08T00:50:36;61;53;
79537;PMS5003;68989;52.032;5.152;2024-03-08T00:53:03;56;51;
79537;PMS5003;68989;52.032;5.152;2024-03-08T00:55:31;59;56;
79537;PMS5003;68989;52.032;5.152;2024-03-08T00:57:57;54;48;
79537;PMS5003;68989;52.032;5.152;2024-03-08T01:00:25;54;51;
79537;PMS5003;68989;52.032;5.152;2024-03-08T01:02:52;55;51;
79537;PMS5003;68989;52.032;5.152;2024-03-08T01:05:20;58;54;
79537;PMS5003;68989;52.032;5.152;2024-03-08T01:07:49;57;51;
79537;PMS5003;68989;52.032;5.152;2024-03-08T01:10:16;51;46;
79537;PMS5003;68989;52.032;5.152;2024-03-08T01:12:43;61;57;
79537;PMS5003;68989;52.032;5.152;2024-03-08T01:15:11;55;49;
79537;PMS5003;68989;52.032;5.152;2024-03-08T01:17:38;65;53;
79537;PMS5003;68989;52.032;5.152;2024-03-08T01:20:06;50;49;
79537;PMS5003;68989;52.032;5.152;2024-03-08T01:22:33;58;52;
79537;PMS5003;68989;52.032;5.152;2024-03-08T01:25:00;70;58;
79537;PMS5003;68989;52.032;5.152;2024-03-08T01:27:27;57;51;
79537;PMS5003;68989;52.032;5.152;2024-03-08T01:29:54;59;53;
79537;PMS5003;68989;52.032;5.152;2024-03-08T01:32:21;59;50;
79537;PMS5003;68989;52.032;5.152;2024-03-08T01:34:48;61;56;
79537;PMS5003;68989;52.032;5.152;2024-03-08T01:37:15;63;55;
79537;PMS5003;68989;52.032;5.152;2024-03-08T01:39:43;51;47;
79537;PMS5003;68989;52.032;5.152;2024-03-08T01:42:10;56;50;
79537;PMS5003;68989;52.032;5.152;2024-03-08T01:44:37;58;51;
79537;PMS5003;68989;52.032;5.152;2024-03-08T01:47:04;58;56;
79537;PMS5003;68989;52.032;5.152;2024-03-08T01:49:32;61;53;
79537;PMS5003;68989;52.032;5.152;2024-03-08T01:51:59;67;54;
79537;PMS5003;68989;52.032;5.152;2024-03-08T01:54:27;61;57;
79537;PMS5003;68989;52.032;5.152;2024-03-08T01:56:54;59;57;
79537;PMS5003;68989;52.032;5.152;2024-03-08T01:59:21;57;49;
79537;PMS5003;68989;52.032;5.152;2024-03-08T02:02:10;68;62;
79537;PMS5003;68989;52.032;5.152;2024-03-08T02:04:41;60;54;
79537;PMS5003;68989;52.032;5.152;2024-03-08T02:07:08;58;51;
79537;PMS5003;68989;52.032;5.152;2024-03-08T02:09:35;70;61;
79537;PMS5003;68989;52.032;5.152;2024-03-08T02:12:03;58;53;
79537;PMS5003;68989;52.032;5.152;2024-03-08T02:14:30;66;52;
79537;PMS5003;68989;52.032;5.152;2024-03-08T02:17:00;63;57;
79537;PMS5003;68989;52.032;5.152;2024-03-08T02:19:26;55;51;
79537;PMS5003;68989;52.032;5.152;2024-03-08T02:21:54;64;56;
79537;PMS5003;68989;52.032;5.152;2024-03-08T02:24:22;58;55;
79537;PMS5003;68989;52.032;5.152;2024-03-08T02:26:49;59;51;
79537;PMS5003;68989;52.032;5.152;2024-03-08T02:29:16;67;54;
79537;PMS5003;68989;52.032;5.152;2024-03-08T02:31:44;59;56;
79537;PMS5003;68989;52.032;5.152;2024-03-08T02:34:11;61;48;
79537;PMS5003;68989;52.032;5.152;2024-03-08T02:36:38;65;56;
79537;PMS5003;68989;52.032;5.152;2024-03-08T02:39:06;64;57;
79537;PMS5003;68989;52.032;5.152;2024-03-08T02:41:33;61;54;
79537;PMS5003;68989;52.032;5.152;2024-03-08T02:43:59;69;55;
79537;PMS5003;68989;52.032;5.152;2024-03-08T02:46:26;67;58;
79537;PMS5003;68989;52.032;5.152;2024-03-08T02:48:53;61;56;
79537;PMS5003;68989;52.032;5.152;2024-03-08T02:51:20;51;45;
79537;PMS5003;68989;52.032;5.152;2024-03-08T02:53:47;61;55;
79537;PMS5003;68989;52.032;5.152;2024-03-08T02:56:14;56;51;
79537;PMS5003;68989;52.032;5.152;2024-03-08T02:58:41;61;55;
79537;PMS5003;68989;52.032;5.152;2024-03-08T03:01:08;57;53;
79537;PMS5003;68989;52.032;5.152;2024-03-08T03:03:35;60;56;
79537;PMS5003;68989;52.032;5.152;2024-03-08T03:06:02;73;64;
79537;PMS5003;68989;52.032;5.152;2024-03-08T03:08:29;67;61;
79537;PMS5003;68989;52.032;5.152;2024-03-08T03:10:56;65;54;
79537;PMS5003;68989;52.032;5.152;2024-03-08T03:13:23;62;56;
79537;PMS5003;68989;52.032;5.152;2024-03-08T03:15:50;65;61;
79537;PMS5003;68989;52.032;5.152;2024-03-08T03:18:17;70;57;
79537;PMS5003;68989;52.032;5.152;2024-03-08T03:20:44;69;57;
79537;PMS5003;68989;52.032;5.152;2024-03-08T03:23:12;58;58;
79537;PMS5003;68989;52.032;5.152;2024-03-08T03:25:39;64;56;
79537;PMS5003;68989;52.032;5.152;2024-03-08T03:28:06;65;60;
79537;PMS5003;68989;52.032;5.152;2024-03-08T03:30:33;65;60;
79537;PMS5003;68989;52.032;5.152;2024-03-08T03:33:00;77;62;
79537;PMS5003;68989;52.032;5.152;2024-03-08T03:35:27;60;53;
79537;PMS5003;68989;52.032;5.152;2024-03-08T03:37:54;59;54;
79537;PMS5003;68989;52.032;5.152;2024-03-08T03:40:21;67;58;
79537;PMS5003;68989;52.032;5.152;2024-03-08T03:42:48;60;57;
79537;PMS5003;68989;52.032;5.152;2024-03-08T03:45:16;66;58;
79537;PMS5003;68989;52.032;5.152;2024-03-08T03:47:42;54;51;
79537;PMS5003;68989;52.032;5.152;2024-03-08T03:50:09;65;54;
79537;PMS5003;68989;52.032;5.152;2024-03-08T03:52:36;61;54;
79537;PMS5003;68989;52.032;5.152;2024-03-08T03:55:03;61;57;
79537;PMS5003;68989;52.032;5.152;2024-03-08T03:57:31;64;55;
79537;PMS5003;68989;52.032;5.152;2024-03-08T03:59:58;60;58;
79537;PMS5003;68989;52.032;5.152;2024-03-08T04:02:26;65;57;
79537;PMS5003;68989;52.032;5.152;2024-03-08T04:04:53;66;57;
79537;PMS5003;68989;52.032;5.152;2024-03-08T04:07:19;73;59;
79537;PMS5003;68989;52.032;5.152;2024-03-08T04:09:47;61;51;
79537;PMS5003;68989;52.032;5.152;2024-03-08T04:12:14;58;54;
79537;PMS5003;68989;52.032;5.152;2024-03-08T04:14:41;55;55;
79537;PMS5003;68989;52.032;5.152;2024-03-08T04:17:09;71;60;
79537;PMS5003;68989;52.032;5.152;2024-03-08T04:19:37;73;63;
79537;PMS5003;68989;52.032;5.152;2024-03-08T04:22:05;66;59;
79537;PMS5003;68989;52.032;5.152;2024-03-08T04:24:32;64;54;
79537;PMS5003;68989;52.032;5.152;2024-03-08T04:26:59;74;68;
79537;PMS5003;68989;52.032;5.152;2024-03-08T04:29:26;65;58;
79537;PMS5003;68989;52.032;5.152;2024-03-08T04:31:53;72;61;
79537;PMS5003;68989;52.032;5.152;2024-03-08T04:34:21;69;53;
79537;PMS5003;68989;52.032;5.152;2024-03-08T04:36:47;60;58;
79537;PMS5003;68989;52.032;5.152;2024-03-08T04:39:15;71;63;
79537;PMS5003;68989;52.032;5.152;2024-03-08T04:41:41;66;57;
79537;PMS5003;68989;52.032;5.152;2024-03-08T04:44:09;67;57;
79537;PMS5003;68989;52.032;5.152;2024-03-08T04:46:37;71;63;
79537;PMS5003;68989;52.032;5.152;2024-03-08T04:49:04;75;63;
79537;PMS5003;68989;52.032;5.152;2024-03-08T04:51:31;75;63;
79537;PMS5003;68989;52.032;5.152;2024-03-08T04:53:59;68;62;
79537;PMS5003;68989;52.032;5.152;2024-03-08T04:56:26;68;59;
79537;PMS5003;68989;52.032;5.152;2024-03-08T04:58:53;70;64;
79537;PMS5003;68989;52.032;5.152;2024-03-08T05:01:20;61;56;
79537;PMS5003;68989;52.032;5.152;2024-03-08T05:03:47;69;60;
79537;PMS5003;68989;52.032;5.152;2024-03-08T05:06:14;69;66;
79537;PMS5003;68989;52.032;5.152;2024-03-08T05:08:42;74;63;
79537;PMS5003;68989;52.032;5.152;2024-03-08T05:11:09;71;65;
79537;PMS5003;68989;52.032;5.152;2024-03-08T05:13:36;70;62;
79537;PMS5003;68989;52.032;5.152;2024-03-08T05:16:04;67;62;
79537;PMS5003;68989;52.032;5.152;2024-03-08T05:18:31;75;68;
79537;PMS5003;68989;52.032;5.152;2024-03-08T05:20:58;69;61;
79537;PMS5003;68989;52.032;5.152;2024-03-08T05:23:25;74;62;
79537;PMS5003;68989;52.032;5.152;2024-03-08T05:25:52;68;61;
79537;PMS5003;68989;52.032;5.152;2024-03-08T05:28:19;67;57;
79537;PMS5003;68989;52.032;5.152;2024-03-08T05:30:47;69;63;
79537;PMS5003;68989;52.032;5.152;2024-03-08T05:33:13;63;56;
79537;PMS5003;68989;52.032;5.152;2024-03-08T05:35:40;63;61;
79537;PMS5003;68989;52.032;5.152;2024-03-08T05:38:08;67;61;
79537;PMS5003;68989;52.032;5.152;2024-03-08T05:40:35;74;63;
79537;PMS5003;68989;52.032;5.152;2024-03-08T05:43:02;69;62;
79537;PMS5003;68989;52.032;5.152;2024-03-08T05:45:29;67;63;
79537;PMS5003;68989;52.032;5.152;2024-03-08T05:47:56;63;58;
79537;PMS5003;68989;52.032;5.152;2024-03-08T05:50:23;63;56;
79537;PMS5003;68989;52.032;5.152;2024-03-08T05:52:51;72;56;
79537;PMS5003;68989;52.032;5.152;2024-03-08T05:55:18;79;66;
79537;PMS5003;68989;52.032;5.152;2024-03-08T05:57:45;72;62;
79537;PMS5003;68989;52.032;5.152;2024-03-08T06:00:12;82;65;
79537;PMS5003;68989;52.032;5.152;2024-03-08T06:02:40;73;60;
79537;PMS5003;68989;52.032;5.152;2024-03-08T06:05:08;73;63;
79537;PMS5003;68989;52.032;5.152;2024-03-08T06:07:36;74;66;
79537;PMS5003;68989;52.032;5.152;2024-03-08T06:10:03;63;61;
79537;PMS5003;68989;52.032;5.152;2024-03-08T06:12:31;80;74;
79537;PMS5003;68989;52.032;5.152;2024-03-08T06:14:58;65;56;
79537;PMS5003;68989;52.032;5.152;2024-03-08T06:17:26;63;60;
79537;PMS5003;68989;52.032;5.152;2024-03-08T06:19:53;75;66;
79537;PMS5003;68989;52.032;5.152;2024-03-08T06:22:20;72;63;
79537;PMS5003;68989;52.032;5.152;2024-03-08T06:24:47;72;64;
79537;PMS5003;68989;52.032;5.152;2024-03-08T06:27:14;77;66;
79537;PMS5003;68989;52.032;5.152;2024-03-08T06:29:41;75;61;
79537;PMS5003;68989;52.032;5.152;2024-03-08T06:32:08;68;62;
79537;PMS5003;68989;52.032;5.152;2024-03-08T06:34:36;67;63;
79537;PMS5003;68989;52.032;5.152;2024-03-08T06:37:03;73;63;
79537;PMS5003;68989;52.032;5.152;2024-03-08T06:39:30;72;64;
79537;PMS5003;68989;52.032;5.152;2024-03-08T06:41:58;70;62;
79537;PMS5003;68989;52.032;5.152;2024-03-08T06:44:25;66;60;
79537;PMS5003;68989;52.032;5.152;2024-03-08T06:46:52;78;67;
79537;PMS5003;68989;52.032;5.152;2024-03-08T06:49:19;75;67;
79537;PMS5003;68989;52.032;5.152;2024-03-08T06:51:46;72;62;
79537;PMS5003;68989;52.032;5.152;2024-03-08T06:54:13;71;62;
79537;PMS5003;68989;52.032;5.152;2024-03-08T06:56:40;83;67;
79537;PMS5003;68989;52.032;5.152;2024-03-08T06:59:07;71;64;
79537;PMS5003;68989;52.032;5.152;2024-03-08T07:01:34;68;60;
79537;PMS5003;68989;52.032;5.152;2024-03-08T07:04:01;64;61;
79537;PMS5003;68989;52.032;5.152;2024-03-08T07:06:28;71;65;
79537;PMS5003;68989;52.032;5.152;2024-03-08T07:08:55;72;64;
79537;PMS5003;68989;52.032;5.152;2024-03-08T07:11:22;65;60;
79537;PMS5003;68989;52.032;5.152;2024-03-08T07:13:49;76;68;
79537;PMS5003;68989;52.032;5.152;2024-03-08T07:16:16;68;60;
79537;PMS5003;68989;52.032;5.152;2024-03-08T07:18:43;66;62;
79537;PMS5003;68989;52.032;5.152;2024-03-08T07:21:10;77;66;
79537;PMS5003;68989;52.032;5.152;2024-03-08T07:23:37;77;68;
79537;PMS5003;68989;52.032;5.152;2024-03-08T07:26:04;67;62;
79537;PMS5003;68989;52.032;5.152;2024-03-08T07:28:31;82;68;
79537;PMS5003;68989;52.032;5.152;2024-03-08T07:30:58;76;66;
79537;PMS5003;68989;52.032;5.152;2024-03-08T07:33:25;77;68;
79537;PMS5003;68989;52.032;5.152;2024-03-08T07:35:52;68;65;
79537;PMS5003;68989;52.032;5.152;2024-03-08T07:38:20;78;66;
79537;PMS5003;68989;52.032;5.152;2024-03-08T07:40:47;73;64;
79537;PMS5003;68989;52.032;5.152;2024-03-08T07:43:14;64;63;
79537;PMS5003;68989;52.032;5.152;2024-03-08T07:45:41;70;64;
79537;PMS5003;68989;52.032;5.152;2024-03-08T07:48:08;82;68;
79537;PMS5003;68989;52.032;5.152;2024-03-08T07:50:36;79;68;
79537;PMS5003;68989;52.032;5.152;2024-03-08T07:53:03;76;63;
79537;PMS5003;68989;52.032;5.152;2024-03-08T07:55:31;61;56;
79537;PMS5003;68989;52.032;5.152;2024-03-08T07:57:57;70;62;
79537;PMS5003;68989;52.032;5.152;2024-03-08T08:00:25;70;62;
79537;PMS5003;68989;52.032;5.152;2024-03-08T08:02:52;72;67;
79537;PMS5003;68989;52.032;5.152;2024-03-08T08:05:20;81;72;
79537;PMS5003;68989;52.032;5.152;2024-03-08T08:07:47;74;69;
79537;PMS5003;68989;52.032;5.152;2024-03-08T08:10:14;77;67;
79537;PMS5003;68989;52.032;5.152;2024-03-08T08:12:42;67;62;
79537;PMS5003;68989;52.032;5.152;2024-03-08T08:15:10;63;61;
79537;PMS5003;68989;52.032;5.152;2024-03-08T08:17:37;67;61;
79537;PMS5003;68989;52.032;5.152;2024-03-08T08:20:05;78;67;
79537;PMS5003;68989;52.032;5.152;2024-03-08T08:22:33;81;67;
79537;PMS5003;68989;52.032;5.152;2024-03-08T08:25:00;70;62;
79537;PMS5003;68989;52.032;5.152;2024-03-08T08:27:27;90;66;
79537;PMS5003;68989;52.032;5.152;2024-03-08T08:29:54;69;59;
79537;PMS5003;68989;52.032;5.152;2024-03-08T08:32:21;71;65;
79537;PMS5003;68989;52.032;5.152;2024-03-08T08:34:48;70;60;
79537;PMS5003;68989;52.032;5.152;2024-03-08T08:37:15;82;70;
79537;PMS5003;68989;52.032;5.152;2024-03-08T08:39:42;66;59;
79537;PMS5003;68989;52.032;5.152;2024-03-08T08:42:10;72;65;
79537;PMS5003;68989;52.032;5.152;2024-03-08T08:44:37;74;64;
79537;PMS5003;68989;52.032;5.152;2024-03-08T08:47:04;67;62;
79537;PMS5003;68989;52.032;5.152;2024-03-08T08:49:31;76;70;
79537;PMS5003;68989;52.032;5.152;2024-03-08T08:51:58;76;66;
79537;PMS5003;68989;52.032;5.152;2024-03-08T08:54:25;77;70;
79537;PMS5003;68989;52.032;5.152;2024-03-08T08:56:52;81;64;
79537;PMS5003;68989;52.032;5.152;2024-03-08T08:59:19;73;65;
79537;PMS5003;68989;52.032;5.152;2024-03-08T09:01:46;71;62;
79537;PMS5003;68989;52.032;5.152;2024-03-08T09:04:13;71;65;
79537;PMS5003;68989;52.032;5.152;2024-03-08T09:06:40;72;60;
79537;PMS5003;68989;52.032;5.152;2024-03-08T09:09:08;73;67;
79537;PMS5003;68989;52.032;5.152;2024-03-08T09:11:35;67;61;
79537;PMS5003;68989;52.032;5.152;2024-03-08T09:14:02;70;62;
79537;PMS5003;68989;52.032;5.152;2024-03-08T09:16:29;73;65;
79537;PMS5003;68989;52.032;5.152;2024-03-08T09:18:56;78;65;
79537;PMS5003;68989;52.032;5.152;2024-03-08T09:21:23;79;70;
79537;PMS5003;68989;52.032;5.152;2024-03-08T09:23:51;81;68;
79537;PMS5003;68989;52.032;5.152;2024-03-08T09:26:19;74;68;
79537;PMS5003;68989;52.032;5.152;2024-03-08T09:28:46;71;70;
79537;PMS5003;68989;52.032;5.152;2024-03-08T09:31:13;72;60;
79537;PMS5003;68989;52.032;5.152;2024-03-08T09:33:41;76;65;
79537;PMS5003;68989;52.032;5.152;2024-03-08T09:36:09;73;61;
79537;PMS5003;68989;52.032;5.152;2024-03-08T09:38:35;62;57;
79537;PMS5003;68989;52.032;5.152;2024-03-08T09:41:02;70;56;
79537;PMS5003;68989;52.032;5.152;2024-03-08T09:43:29;67;59;
79537;PMS5003;68989;52.032;5.152;2024-03-08T09:45:57;65;57;
79537;PMS5003;68989;52.032;5.152;2024-03-08T09:48:24;64;55;
79537;PMS5003;68989;52.032;5.152;2024-03-08T09:50:53;62;57;
79537;PMS5003;68989;52.032;5.152;2024-03-08T09:53:20;64;57;
79537;PMS5003;68989;52.032;5.152;2024-03-08T09:55:47;62;56;
79537;PMS5003;68989;52.032;5.152;2024-03-08T09:58:15;65;59;
79537;PMS5003;68989;52.032;5.152;2024-03-08T10:00:42;62;58;
79537;PMS5003;68989;52.032;5.152;2024-03-08T10:03:09;64;57;
79537;PMS5003;68989;52.032;5.152;2024-03-08T10:05:36;63;57;
79537;PMS5003;68989;52.032;5.152;2024-03-08T10:08:04;68;57;
79537;PMS5003;68989;52.032;5.152;2024-03-08T10:10:33;58;54;
79537;PMS5003;68989;52.032;5.152;2024-03-08T10:13:00;71;63;
79537;PMS5003;68989;52.032;5.152;2024-03-08T10:15:27;65;56;
79537;PMS5003;68989;52.032;5.152;2024-03-08T10:17:55;69;63;
79537;PMS5003;68989;52.032;5.152;2024-03-08T10:20:23;73;69;
79537;PMS5003;68989;52.032;5.152;2024-03-08T10:22:50;65;56;
79537;PMS5003;68989;52.032;5.152;2024-03-08T10:25:19;68;60;
79537;PMS5003;68989;52.032;5.152;2024-03-08T10:27:46;69;59;
79537;PMS5003;68989;52.032;5.152;2024-03-08T10:30:13;58;50;
79537;PMS5003;68989;52.032;5.152;2024-03-08T10:32:42;62;62;
79537;PMS5003;68989;52.032;5.152;2024-03-08T10:35:09;60;53;
79537;PMS5003;68989;52.032;5.152;2024-03-08T10:37:36;72;64;
79537;PMS5003;68989;52.032;5.152;2024-03-08T10:40:12;60;52;
79537;PMS5003;68989;52.032;5.152;2024-03-08T10:42:46;59;55;
79537;PMS5003;68989;52.032;5.152;2024-03-08T10:45:22;63;55;
79537;PMS5003;68989;52.032;5.152;2024-03-08T10:48:06;63;55;
79537;PMS5003;68989;52.032;5.152;2024-03-08T10:50:43;56;51;
79537;PMS5003;68989;52.032;5.152;2024-03-08T10:53:11;64;56;
79537;PMS5003;68989;52.032;5.152;2024-03-08T10:55:39;58;51;
79537;PMS5003;68989;52.032;5.152;2024-03-08T10:58:07;60;53;
79537;PMS5003;68989;52.032;5.152;2024-03-08T11:00:34;53;48;
79537;PMS5003;68989;52.032;5.152;2024-03-08T11:03:02;60;52;
79537;PMS5003;68989;52.032;5.152;2024-03-08T11:05:32;64;56;
79537;PMS5003;68989;52.032;5.152;2024-03-08T11:08:05;56;50;
79537;PMS5003;68989;52.032;5.152;2024-03-08T11:10:46;66;53;
79537;PMS5003;68989;52.032;5.152;2024-03-08T11:13:31;60;48;
79537;PMS5003;68989;52.032;5.152;2024-03-08T11:15:59;58;49;
79537;PMS5003;68989;52.032;5.152;2024-03-08T11:18:26;52;49;
79537;PMS5003;68989;52.032;5.152;2024-03-08T11:20:54;54;54;
79537;PMS5003;68989;52.032;5.152;2024-03-08T11:23:22;46;42;
79537;PMS5003;68989;52.032;5.152;2024-03-08T11:25:49;56;47;
79537;PMS5003;68989;52.032;5.152;2024-03-08T11:28:17;53;47;
79537;PMS5003;68989;52.032;5.152;2024-03-08T11:30:45;46;42;
79537;PMS5003;68989;52.032;5.152;2024-03-08T11:33:14;51;47;
79537;PMS5003;68989;52.032;5.152;2024-03-08T11:35:42;53;40;
79537;PMS5003;68989;52.032;5.152;2024-03-08T11:38:10;46;44;
79537;PMS5003;68989;52.032;5.152;2024-03-08T11:40:36;49;43;
79537;PMS5003;68989;52.032;5.152;2024-03-08T11:43:05;44;40;
79537;PMS5003;68989;52.032;5.152;2024-03-08T11:45:33;49;46;
79537;PMS5003;68989;52.032;5.152;2024-03-08T11:48:01;45;42;
79537;PMS5003;68989;52.032;5.152;2024-03-08T11:50:29;50;41;
79537;PMS5003;68989;52.032;5.152;2024-03-08T11:53:00;44;42;
79537;PMS5003;68989;52.032;5.152;2024-03-08T11:55:27;40;36;
79537;PMS5003;68989;52.032;5.152;2024-03-08T11:57:59;54;46;
79537;PMS5003;68989;52.032;5.152;2024-03-08T12:00:28;54;46;
79537;PMS5003;68989;52.032;5.152;2024-03-08T12:03:00;46;37;
79537;PMS5003;68989;52.032;5.152;2024-03-08T12:05:28;44;40;
79537;PMS5003;68989;52.032;5.152;2024-03-08T12:07:56;46;41;
79537;PMS5003;68989;52.032;5.152;2024-03-08T12:10:23;55;46;
79537;PMS5003;68989;52.032;5.152;2024-03-08T12:12:51;46;43;
79537;PMS5003;68989;52.032;5.152;2024-03-08T12:15:21;59;49;
79537;PMS5003;68989;52.032;5.152;2024-03-08T12:17:49;45;41;
79537;PMS5003;68989;52.032;5.152;2024-03-08T12:20:18;57;49;
79537;PMS5003;68989;52.032;5.152;2024-03-08T12:22:46;47;43;
79537;PMS5003;68989;52.032;5.152;2024-03-08T12:25:12;54;46;
79537;PMS5003;68989;52.032;5.152;2024-03-08T12:27:40;48;43;
79537;PMS5003;68989;52.032;5.152;2024-03-08T12:30:25;49;44;
79537;PMS5003;68989;52.032;5.152;2024-03-08T12:32:54;46;41;
79537;PMS5003;68989;52.032;5.152;2024-03-08T12:35:22;48;43;
79537;PMS5003;68989;52.032;5.152;2024-03-08T12:37:52;50;44;
79537;PMS5003;68989;52.032;5.152;2024-03-08T12:40:25;51;48;
79537;PMS5003;68989;52.032;5.152;2024-03-08T12:42:53;46;39;
79537;PMS5003;68989;52.032;5.152;2024-03-08T12:45:20;42;39;
79537;PMS5003;68989;52.032;5.152;2024-03-08T12:47:47;49;42;
79537;PMS5003;68989;52.032;5.152;2024-03-08T12:50:14;57;48;
79537;PMS5003;68989;52.032;5.152;2024-03-08T12:52:41;49;44;
79537;PMS5003;68989;52.032;5.152;2024-03-08T12:55:08;52;45;
79537;PMS5003;68989;52.032;5.152;2024-03-08T12:57:35;52;41;
79537;PMS5003;68989;52.032;5.152;2024-03-08T13:00:03;46;41;
79537;PMS5003;68989;52.032;5.152;2024-03-08T13:02:31;51;44;
79537;PMS5003;68989;52.032;5.152;2024-03-08T13:04:58;46;41;
79537;PMS5003;68989;52.032;5.152;2024-03-08T13:07:25;50;44;
79537;PMS5003;68989;52.032;5.152;2024-03-08T13:09:53;60;49;
79537;PMS5003;68989;52.032;5.152;2024-03-08T13:12:21;44;43;
79537;PMS5003;68989;52.032;5.152;2024-03-08T13:14:48;42;40;
79537;PMS5003;68989;52.032;5.152;2024-03-08T13:17:15;47;45;
79537;PMS5003;68989;52.032;5.152;2024-03-08T13:19:42;48;46;
79537;PMS5003;68989;52.032;5.152;2024-03-08T13:22:09;43;39;
79537;PMS5003;68989;52.032;5.152;2024-03-08T13:24:37;50;45;
79537;PMS5003;68989;52.032;5.152;2024-03-08T13:27:04;45;39;
79537;PMS5003;68989;52.032;5.152;2024-03-08T13:29:32;53;46;
79537;PMS5003;68989;52.032;5.152;2024-03-08T13:31:59;49;43;
79537;PMS5003;68989;52.032;5.152;2024-03-08T13:34:26;54;50;
79537;PMS5003;68989;52.032;5.152;2024-03-08T13:36:53;44;42;
79537;PMS5003;68989;52.032;5.152;2024-03-08T13:39:20;45;40;
79537;PMS5003;68989;52.032;5.152;2024-03-08T13:41:47;43;40;
79537;PMS5003;68989;52.032;5.152;2024-03-08T13:44:15;53;47;
79537;PMS5003;68989;52.032;5.152;2024-03-08T13:46:42;52;47;
79537;PMS5003;68989;52.032;5.152;2024-03-08T13:49:09;47;43;
79537;PMS5003;68989;52.032;5.152;2024-03-08T13:51:36;52;43;
79537;PMS5003;68989;52.032;5.152;2024-03-08T13:54:03;54;46;
79537;PMS5003;68989;52.032;5.152;2024-03-08T13:56:30;45;42;
79537;PMS5003;68989;52.032;5.152;2024-03-08T13:58:58;54;45;
79537;PMS5003;68989;52.032;5.152;2024-03-08T14:01:25;56;48;
79537;PMS5003;68989;52.032;5.152;2024-03-08T14:03:53;51;45;
79537;PMS5003;68989;52.032;5.152;2024-03-08T14:06:20;54;46;
79537;PMS5003;68989;52.032;5.152;2024-03-08T14:08:47;52;45;
79537;PMS5003;68989;52.032;5.152;2024-03-08T14:11:14;61;52;
79537;PMS5003;68989;52.032;5.152;2024-03-08T14:13:41;50;44;
79537;PMS5003;68989;52.032;5.152;2024-03-08T14:16:09;49;43;
79537;PMS5003;68989;52.032;5.152;2024-03-08T14:18:35;45;44;
79537;PMS5003;68989;52.032;5.152;2024-03-08T14:21:03;56;47;
79537;PMS5003;68989;52.032;5.152;2024-03-08T14:23:30;45;42;
79537;PMS5003;68989;52.032;5.152;2024-03-08T14:25:58;49;47;
79537;PMS5003;68989;52.032;5.152;2024-03-08T14:28:26;51;43;
79537;PMS5003;68989;52.032;5.152;2024-03-08T14:30:53;47;46;
79537;PMS5003;68989;52.032;5.152;2024-03-08T14:33:20;48;46;
79537;PMS5003;68989;52.032;5.152;2024-03-08T14:35:46;45;41;
79537;PMS5003;68989;52.032;5.152;2024-03-08T14:38:14;49;44;
79537;PMS5003;68989;52.032;5.152;2024-03-08T14:40:41;46;41;
79537;PMS5003;68989;52.032;5.152;2024-03-08T14:43:08;56;47;
79537;PMS5003;68989;52.032;5.152;2024-03-08T14:45:35;46;42;
79537;PMS5003;68989;52.032;5.152;2024-03-08T14:48:04;52;47;
79537;PMS5003;68989;52.032;5.152;2024-03-08T14:50:31;47;43;
79537;PMS5003;68989;52.032;5.152;2024-03-08T14:52:59;48;45;
79537;PMS5003;68989;52.032;5.152;2024-03-08T14:55:25;46;43;
79537;PMS5003;68989;52.032;5.152;2024-03-08T14:57:52;50;46;
79537;PMS5003;68989;52.032;5.152;2024-03-08T15:00:20;47;43;
79537;PMS5003;68989;52.032;5.152;2024-03-08T15:02:47;48;46;
79537;PMS5003;68989;52.032;5.152;2024-03-08T15:05:14;49;43;
79537;PMS5003;68989;52.032;5.152;2024-03-08T15:07:41;52;47;
79537;PMS5003;68989;52.032;5.152;2024-03-08T15:10:08;51;45;
79537;PMS5003;68989;52.032;5.152;2024-03-08T15:12:36;50;47;
79537;PMS5003;68989;52.032;5.152;2024-03-08T15:15:04;56;49;
79537;PMS5003;68989;52.032;5.152;2024-03-08T15:17:32;45;41;
79537;PMS5003;68989;52.032;5.152;2024-03-08T15:20:00;53;47;
79537;PMS5003;68989;52.032;5.152;2024-03-08T15:22:27;47;45;
79537;PMS5003;68989;52.032;5.152;2024-03-08T15:24:54;50;45;
79537;PMS5003;68989;52.032;5.152;2024-03-08T15:27:21;53;50;
79537;PMS5003;68989;52.032;5.152;2024-03-08T15:29:48;49;43;
79537;PMS5003;68989;52.032;5.152;2024-03-08T15:32:16;50;49;
79537;PMS5003;68989;52.032;5.152;2024-03-08T15:34:43;47;45;
79537;PMS5003;68989;52.032;5.152;2024-03-08T15:37:10;47;43;
79537;PMS5003;68989;52.032;5.152;2024-03-08T15:39:37;45;42;
79537;PMS5003;68989;52.032;5.152;2024-03-08T15:42:04;48;46;
79537;PMS5003;68989;52.032;5.152;2024-03-08T15:44:31;53;48;
79537;PMS5003;68989;52.032;5.152;2024-03-08T15:46:58;48;46;
79537;PMS5003;68989;52.032;5.152;2024-03-08T15:49:24;51;45;
79537;PMS5003;68989;52.032;5.152;2024-03-08T15:51:52;48;46;
79537;PMS5003;68989;52.032;5.152;2024-03-08T15:54:19;51;47;
79537;PMS5003;68989;52.032;5.152;2024-03-08T15:56:46;51;44;
79537;PMS5003;68989;52.032;5.152;2024-03-08T15:59:14;45;40;
79537;PMS5003;68989;52.032;5.152;2024-03-08T16:01:40;52;48;
79537;PMS5003;68989;52.032;5.152;2024-03-08T16:04:08;48;44;
79537;PMS5003;68989;52.032;5.152;2024-03-08T16:06:35;50;46;
79537;PMS5003;68989;52.032;5.152;2024-03-08T16:09:02;54;48;
79537;PMS5003;68989;52.032;5.152;2024-03-08T16:11:29;49;45;
79537;PMS5003;68989;52.032;5.152;2024-03-08T16:13:56;43;43;
79537;PMS5003;68989;52.032;5.152;2024-03-08T16:16:23;50;45;
79537;PMS5003;68989;52.032;5.152;2024-03-08T16:18:51;46;44;
79537;PMS5003;68989;52.032;5.152;2024-03-08T16:21:18;56;48;